createdAt,value
2018-04-28T00:01:50.615Z,16.57
2018-04-28T00:04:16.408Z,16.67
2018-04-28T00:06:42.192Z,16.90
2018-04-28T00:09:07.985Z,16.80
2018-04-28T00:11:33.720Z,17.33
2018-04-28T00:13:59.469Z,17.20
2018-04-28T00:16:27.165Z,16.47
2018-04-28T00:19:03.878Z,16.00
2018-04-28T00:21:33.426Z,17.30
2018-04-28T00:23:59.306Z,17.33
2018-04-28T00:26:25.068Z,16.30
2018-04-28T00:28:50.824Z,17.43
2018-04-28T00:34:32.164Z,17.37
2018-04-28T00:36:59.798Z,16.02
2018-04-28T00:39:25.589Z,16.42
2018-04-28T00:41:51.328Z,17.07
2018-04-28T00:44:17.354Z,16.63
2018-04-28T00:46:45.286Z,17.52
2018-04-28T00:49:11.029Z,17.67
2018-04-28T00:51:36.936Z,16.10
2018-04-28T00:54:10.072Z,17.90
2018-04-28T00:56:35.872Z,17.48
2018-04-28T00:59:02.601Z,17.03
2018-04-28T01:01:36.966Z,17.65
2018-04-28T01:04:13.873Z,17.13
2018-04-28T01:06:39.910Z,16.10
2018-04-28T01:09:05.682Z,17.65
2018-04-28T01:11:33.658Z,17.00
2018-04-28T01:16:53.239Z,15.00
2018-04-28T01:19:23.171Z,16.73
2018-04-28T01:21:48.957Z,17.65
2018-04-28T01:24:20.765Z,17.13
2018-04-28T01:26:52.420Z,17.80
2018-04-28T01:29:18.173Z,17.48
2018-04-28T01:31:43.916Z,17.53
2018-04-28T01:34:24.722Z,18.30
2018-04-28T01:36:51.446Z,16.92
2018-04-28T01:42:18.587Z,16.58
2018-04-28T01:47:51.264Z,18.60
2018-04-28T01:50:17.028Z,17.10
2018-04-28T01:52:42.780Z,17.67
2018-04-28T01:55:33.251Z,17.10
2018-04-28T01:58:00.800Z,16.92
2018-04-28T02:03:44.310Z,18.42
2018-04-28T02:06:16.297Z,18.05
2018-04-28T02:08:42.047Z,16.90
2018-04-28T02:11:07.806Z,16.83
2018-04-28T02:13:35.373Z,18.67
2018-04-28T02:16:01.109Z,18.15
2018-04-28T02:21:35.871Z,17.10
2018-04-28T02:24:08.590Z,17.87
2018-04-28T02:26:39.423Z,17.20
2018-04-28T02:29:14.041Z,18.50
2018-04-28T02:31:39.814Z,18.77
2018-04-28T02:37:24.105Z,18.07
2018-04-28T02:39:51.712Z,18.48
2018-04-28T02:42:24.268Z,18.40
2018-04-28T02:45:04.833Z,18.70
2018-04-28T02:47:30.588Z,19.85
2018-04-28T02:50:02.277Z,20.40
2018-04-28T02:55:36.139Z,21.02
2018-04-28T02:58:14.213Z,21.80
2018-04-28T03:00:45.024Z,21.53
2018-04-28T03:03:16.749Z,21.48
2018-04-28T03:05:42.512Z,22.77
2018-04-28T03:08:08.253Z,23.50
2018-04-28T03:10:34.876Z,24.90
2018-04-28T03:13:00.613Z,25.35
2018-04-28T03:15:26.396Z,24.90
2018-04-28T03:17:53.008Z,28.00
2018-04-28T03:20:18.760Z,28.40
2018-04-28T03:25:39.998Z,29.95
2018-04-28T03:28:07.655Z,33.33
2018-04-28T03:30:39.400Z,34.30
2018-04-28T03:33:09.124Z,27.08
2018-04-28T03:35:39.805Z,25.52
2018-04-28T03:38:08.601Z,33.50
2018-04-28T03:40:38.285Z,34.38
2018-04-28T03:46:03.726Z,28.90
2018-04-28T03:48:29.479Z,27.98
2018-04-28T03:50:58.135Z,30.43
2018-04-28T03:53:30.021Z,34.30
2018-04-28T03:56:05.781Z,35.22
2018-04-28T03:58:43.828Z,36.03
2018-04-28T04:01:21.924Z,35.28
2018-04-28T04:04:01.884Z,36.20
2018-04-28T04:06:41.664Z,36.20
2018-04-28T04:09:11.412Z,35.75
2018-04-28T04:11:43.312Z,36.05
2018-04-28T04:17:15.863Z,33.50
2018-04-28T04:22:54.196Z,30.58
2018-04-28T04:25:25.980Z,33.40
2018-04-28T04:30:58.760Z,31.52
2018-04-28T04:36:33.244Z,33.13
2018-04-28T04:42:30.419Z,31.57
2018-04-28T04:45:02.308Z,32.33
2018-04-28T04:47:40.404Z,32.13
2018-04-28T04:50:14.207Z,29.93
2018-04-28T04:52:43.968Z,32.10
2018-04-28T04:55:16.731Z,32.07
2018-04-28T05:01:02.129Z,29.07
2018-04-28T05:06:45.538Z,27.30
2018-04-28T05:09:11.275Z,27.37
2018-04-28T05:11:43.088Z,26.97
2018-04-28T05:14:19.899Z,26.20
2018-04-28T05:16:58.991Z,26.20
2018-04-28T05:19:30.637Z,25.90
2018-04-28T05:21:58.327Z,25.33
2018-04-28T05:24:30.309Z,25.90
2018-04-28T05:30:19.168Z,24.60
2018-04-28T05:36:05.850Z,24.67
2018-04-28T05:41:46.556Z,23.00
2018-04-28T05:47:20.431Z,20.87
2018-04-28T05:53:14.569Z,20.67
2018-04-28T05:55:46.416Z,20.43
2018-04-28T05:58:20.328Z,20.77
2018-04-28T06:00:46.106Z,19.53
2018-04-28T06:06:22.764Z,16.87
2018-04-28T06:08:59.669Z,16.03
2018-04-28T06:14:20.856Z,14.37
2018-04-28T06:16:54.791Z,12.70
2018-04-28T06:19:26.652Z,11.23
2018-04-28T06:21:52.409Z,12.20
2018-04-28T06:24:18.135Z,9.83
2018-04-28T06:26:43.869Z,8.93
2018-04-28T06:29:09.620Z,8.13
2018-04-28T06:31:35.385Z,7.97
2018-04-28T06:34:01.132Z,7.57
2018-04-28T06:36:26.884Z,7.67
2018-04-28T06:38:52.643Z,8.20
2018-04-28T06:41:18.454Z,7.97
2018-04-28T06:43:44.141Z,7.00
2018-04-28T06:46:09.860Z,6.90
2018-04-28T06:48:35.601Z,7.20
2018-04-28T06:51:01.340Z,7.30
2018-04-28T06:53:27.083Z,6.90
2018-04-28T06:55:52.858Z,7.10
2018-04-28T06:58:18.601Z,7.10
2018-04-28T07:00:44.381Z,6.33
2018-04-28T07:03:10.127Z,6.73
2018-04-28T07:05:35.864Z,6.83
2018-04-28T07:08:01.612Z,6.17
2018-04-28T07:10:27.342Z,6.70
2018-04-28T07:12:53.087Z,5.97
2018-04-28T07:15:18.828Z,5.40
2018-04-28T07:17:44.551Z,5.37
2018-04-28T07:20:10.326Z,5.40
2018-04-28T07:22:36.050Z,5.87
2018-04-28T07:25:01.805Z,5.20
2018-04-28T07:27:27.545Z,5.37
2018-04-28T07:29:53.305Z,5.27
2018-04-28T07:32:19.033Z,5.20
2018-04-28T07:34:44.782Z,4.83
2018-04-28T07:37:10.514Z,5.00
2018-04-28T07:39:36.247Z,5.57
2018-04-28T07:42:01.981Z,5.00
2018-04-28T07:44:27.735Z,5.13
2018-04-28T07:46:53.477Z,5.43
2018-04-28T07:49:19.228Z,4.77
2018-04-28T07:51:44.960Z,5.10
2018-04-28T07:54:10.815Z,5.23
2018-04-28T07:56:36.514Z,4.80
2018-04-28T07:59:02.247Z,4.93
2018-04-28T08:01:27.976Z,5.10
2018-04-28T08:03:53.723Z,5.10
2018-04-28T08:06:19.461Z,5.47
2018-04-28T08:08:45.205Z,5.87
2018-04-28T08:11:10.977Z,5.73
2018-04-28T08:13:36.718Z,5.87
2018-04-28T08:16:02.443Z,5.63
2018-04-28T08:18:28.198Z,5.53
2018-04-28T08:20:53.941Z,5.00
2018-04-28T08:23:19.676Z,5.07
2018-04-28T08:25:45.416Z,5.43
2018-04-28T08:28:11.152Z,5.40
2018-04-28T08:30:36.913Z,5.67
2018-04-28T08:33:02.639Z,5.33
2018-04-28T08:35:28.375Z,5.07
2018-04-28T08:37:54.120Z,5.60
2018-04-28T08:40:19.859Z,5.80
2018-04-28T08:42:45.589Z,5.67
2018-04-28T08:45:11.336Z,5.60
2018-04-28T08:47:37.069Z,6.23
2018-04-28T08:50:02.807Z,5.77
2018-04-28T08:52:28.544Z,5.43
2018-04-28T08:54:54.328Z,5.90
2018-04-28T08:57:20.056Z,6.10
2018-04-28T08:59:58.360Z,6.10
2018-04-28T09:02:24.092Z,5.83
2018-04-28T09:04:49.848Z,6.13
2018-04-28T09:07:28.120Z,6.57
2018-04-28T09:09:53.879Z,6.17
2018-04-28T09:12:19.601Z,5.50
2018-04-28T09:14:45.339Z,6.20
2018-04-28T09:17:11.069Z,5.93
2018-04-28T09:19:36.833Z,6.20
2018-04-28T09:22:02.572Z,5.50
2018-04-28T09:24:28.317Z,5.53
2018-04-28T09:26:54.053Z,5.70
2018-04-28T09:29:19.795Z,5.07
2018-04-28T09:31:45.541Z,5.07
2018-04-28T09:34:11.267Z,4.93
2018-04-28T09:36:36.993Z,4.43
2018-04-28T09:39:02.728Z,4.50
2018-04-28T09:41:28.484Z,5.03
2018-04-28T09:43:54.229Z,4.50
2018-04-28T09:46:19.981Z,4.40
2018-04-28T09:48:45.720Z,4.97
2018-04-28T09:51:11.479Z,4.70
2018-04-28T09:53:37.216Z,5.20
2018-04-28T09:56:02.960Z,4.87
2018-04-28T09:58:28.701Z,5.47
2018-04-28T10:00:54.510Z,4.60
2018-04-28T10:03:21.233Z,5.60
2018-04-28T10:05:46.989Z,6.17
2018-04-28T10:08:12.721Z,5.53
2018-04-28T10:10:38.456Z,5.10
2018-04-28T10:13:04.205Z,5.20
2018-04-28T10:15:30.179Z,5.90
2018-04-28T10:17:55.928Z,5.80
2018-04-28T10:20:21.777Z,5.60
2018-04-28T10:22:47.402Z,5.77
2018-04-28T10:25:13.141Z,5.70
2018-04-28T10:27:38.877Z,5.70
2018-04-28T10:30:04.647Z,6.00
2018-04-28T10:32:30.376Z,5.87
2018-04-28T10:34:56.124Z,6.30
2018-04-28T10:37:21.856Z,6.50
2018-04-28T10:39:47.608Z,6.03
2018-04-28T10:42:13.337Z,6.20
2018-04-28T10:44:39.064Z,6.00
2018-04-28T10:47:04.805Z,6.50
2018-04-28T10:49:30.532Z,6.30
2018-04-28T10:51:56.281Z,6.37
2018-04-28T10:54:22.000Z,6.87
2018-04-28T10:56:47.751Z,6.13
2018-04-28T10:59:14.210Z,6.83
2018-04-28T11:01:39.952Z,6.80
2018-04-28T11:04:05.685Z,6.43
2018-04-28T11:06:31.424Z,6.90
2018-04-28T11:08:57.160Z,8.07
2018-04-28T11:11:23.236Z,7.30
2018-04-28T11:13:49.003Z,6.80
2018-04-28T11:16:14.744Z,7.90
2018-04-28T11:18:40.472Z,8.10
2018-04-28T11:21:06.240Z,8.50
2018-04-28T11:23:31.978Z,8.90
2018-04-28T11:25:57.715Z,9.30
2018-04-28T11:28:23.458Z,8.10
2018-04-28T11:30:49.196Z,7.63
2018-04-28T11:33:14.936Z,8.50
2018-04-28T11:35:40.671Z,8.43
2018-04-28T11:38:06.462Z,8.57
2018-04-28T11:40:32.168Z,8.30
2018-04-28T11:42:57.894Z,8.57
2018-04-28T11:45:23.631Z,9.27
2018-04-28T11:47:49.365Z,9.40
2018-04-28T11:50:15.113Z,9.50
2018-04-28T11:52:40.858Z,9.57
2018-04-28T11:55:06.609Z,8.60
2018-04-28T11:57:32.343Z,8.53
2018-04-28T11:59:58.075Z,9.73
2018-04-28T12:02:23.828Z,9.23
2018-04-28T12:04:49.555Z,10.20
2018-04-28T12:07:15.302Z,10.63
2018-04-28T12:09:41.037Z,10.97
2018-04-28T12:12:06.792Z,10.83
2018-04-28T12:14:32.513Z,11.30
2018-04-28T12:16:58.255Z,11.07
2018-04-28T12:19:23.985Z,11.23
2018-04-28T12:21:49.726Z,11.60
2018-04-28T12:24:15.447Z,11.07
2018-04-28T12:26:41.180Z,11.23
2018-04-28T12:29:06.916Z,11.43
2018-04-28T12:31:32.663Z,10.80
2018-04-28T12:33:58.394Z,11.03
2018-04-28T12:36:24.140Z,10.57
2018-04-28T12:38:49.875Z,11.33
2018-04-28T12:41:15.615Z,10.50
2018-04-28T12:43:41.364Z,10.67
2018-04-28T12:46:07.099Z,9.27
2018-04-28T12:48:32.841Z,9.20
2018-04-28T12:50:58.584Z,9.43
2018-04-28T12:53:24.308Z,9.20
2018-04-28T12:55:50.123Z,10.63
2018-04-28T12:58:15.811Z,11.30
2018-04-28T13:00:41.542Z,11.13
2018-04-28T13:03:07.281Z,11.17
2018-04-28T13:05:33.011Z,10.17
2018-04-28T13:07:58.739Z,10.53
2018-04-28T13:10:24.473Z,10.00
2018-04-28T13:12:50.216Z,9.97
2018-04-28T13:15:15.947Z,10.47
2018-04-28T13:17:41.700Z,10.47
2018-04-28T13:20:07.424Z,9.47
2018-04-28T13:22:33.176Z,9.93
2018-04-28T13:24:58.904Z,10.30
2018-04-28T13:27:24.653Z,9.63
2018-04-28T13:29:50.368Z,9.10
2018-04-28T13:32:16.095Z,8.97
2018-04-28T13:34:41.828Z,8.80
2018-04-28T13:37:07.588Z,8.87
2018-04-28T13:39:33.322Z,8.33
2018-04-28T13:41:59.065Z,7.80
2018-04-28T13:44:24.788Z,7.57
2018-04-28T13:46:50.536Z,7.53
2018-04-28T13:49:16.275Z,6.40
2018-04-28T13:51:42.020Z,6.20
2018-04-28T13:54:07.752Z,5.90
2018-04-28T13:56:33.497Z,5.97
2018-04-28T13:58:59.237Z,6.00
2018-04-28T14:01:25.023Z,6.53
2018-04-28T14:03:50.741Z,6.70
2018-04-28T14:06:16.468Z,6.27
2018-04-28T14:08:42.236Z,6.10
2018-04-28T14:11:07.967Z,6.53
2018-04-28T14:13:33.704Z,6.10
2018-04-28T14:15:59.440Z,5.90
2018-04-28T14:18:25.185Z,6.27
2018-04-28T14:20:50.923Z,6.77
2018-04-28T14:23:16.680Z,5.80
2018-04-28T14:25:42.416Z,5.97
2018-04-28T14:28:08.164Z,5.97
2018-04-28T14:30:33.902Z,6.00
2018-04-28T14:32:59.653Z,6.20
2018-04-28T14:35:25.404Z,5.97
2018-04-28T14:37:51.136Z,5.80
2018-04-28T14:40:16.890Z,5.60
2018-04-28T14:42:42.615Z,5.70
2018-04-28T14:45:08.352Z,5.70
2018-04-28T14:47:34.080Z,5.80
2018-04-28T14:49:59.812Z,6.00
2018-04-28T14:52:25.556Z,5.77
2018-04-28T14:54:51.280Z,5.97
2018-04-28T14:57:17.036Z,5.87
2018-04-28T14:59:42.764Z,5.43
2018-04-28T15:02:08.517Z,5.20
2018-04-28T15:04:34.236Z,6.00
2018-04-28T15:06:59.980Z,6.20
2018-04-28T15:09:25.714Z,5.47
2018-04-28T15:11:51.448Z,5.67
2018-04-28T15:14:17.192Z,5.53
2018-04-28T15:16:42.981Z,6.00
2018-04-28T15:19:08.671Z,5.50
2018-04-28T15:21:34.401Z,5.10
2018-04-28T15:24:00.139Z,4.63
2018-04-28T15:26:25.886Z,4.70
2018-04-28T15:28:51.723Z,4.73
2018-04-28T15:31:17.372Z,4.77
2018-04-28T15:33:43.125Z,5.10
2018-04-28T15:36:08.852Z,6.07
2018-04-28T15:38:34.593Z,6.60
2018-04-28T15:41:00.314Z,7.87
2018-04-28T15:43:26.060Z,7.57
2018-04-28T15:45:51.797Z,7.67
2018-04-28T15:48:17.541Z,8.37
2018-04-28T15:50:43.264Z,8.93
2018-04-28T15:53:09.005Z,10.57
2018-04-28T15:55:34.760Z,9.83
2018-04-28T15:58:00.492Z,10.30
2018-04-28T16:00:26.233Z,10.50
2018-04-28T16:02:51.987Z,11.97
2018-04-28T16:05:17.691Z,11.50
2018-04-28T16:07:43.424Z,25.33
2018-04-28T16:10:09.156Z,14.80
2018-04-28T16:12:34.905Z,13.13
2018-04-28T16:15:02.385Z,12.60
2018-04-28T16:17:28.156Z,12.33
2018-04-28T16:19:53.898Z,12.40
2018-04-28T16:22:19.638Z,12.13
2018-04-28T16:24:45.378Z,14.37
2018-04-28T16:27:13.729Z,14.63
2018-04-28T16:29:39.533Z,14.63
2018-04-28T16:32:05.369Z,12.17
2018-04-28T16:34:31.104Z,11.03
2018-04-28T16:36:56.840Z,12.07
2018-04-28T16:39:22.592Z,10.60
2018-04-28T16:41:48.311Z,11.50
2018-04-28T16:44:14.054Z,11.03
2018-04-28T16:46:39.785Z,11.03
2018-04-28T16:49:05.516Z,10.97
2018-04-28T16:51:31.235Z,11.40
2018-04-28T16:53:56.983Z,10.80
2018-04-28T16:56:22.720Z,12.33
2018-04-28T16:58:48.440Z,11.87
2018-04-28T17:01:14.181Z,12.50
2018-04-28T17:03:39.910Z,11.87
2018-04-28T17:06:05.645Z,11.13
2018-04-28T17:08:31.401Z,10.60
2018-04-28T17:10:57.139Z,10.70
2018-04-28T17:13:22.900Z,11.43
2018-04-28T17:15:48.640Z,13.03
2018-04-28T17:18:14.379Z,11.47
2018-04-28T17:20:40.172Z,13.07
2018-04-28T17:23:05.856Z,12.87
2018-04-28T17:25:31.591Z,13.70
2018-04-28T17:27:57.315Z,12.57
2018-04-28T17:30:23.061Z,13.93
2018-04-28T17:32:48.775Z,14.77
2018-04-28T17:35:14.520Z,13.93
2018-04-28T17:37:40.244Z,13.90
2018-04-28T17:40:05.988Z,14.77
2018-04-28T17:42:31.713Z,14.97
2018-04-28T17:44:57.449Z,15.33
2018-04-28T17:47:23.219Z,13.43
2018-04-28T17:49:48.965Z,14.10
2018-04-28T17:52:14.740Z,13.77
2018-04-28T17:54:40.476Z,14.33
2018-04-28T17:57:06.212Z,14.60
2018-04-28T17:59:31.948Z,14.33
2018-04-28T18:01:57.695Z,13.63
2018-04-28T18:04:23.426Z,15.60
2018-04-28T18:06:49.160Z,15.33
2018-04-28T18:09:14.892Z,16.60
2018-04-28T18:11:40.619Z,16.70
2018-04-28T18:14:06.514Z,15.77
2018-04-28T18:16:32.257Z,16.03
2018-04-28T18:18:57.996Z,15.50
2018-04-28T18:21:23.729Z,15.47
2018-04-28T18:23:49.469Z,15.90
2018-04-28T18:26:15.249Z,15.07
2018-04-28T18:28:40.957Z,17.70
2018-04-28T18:31:06.703Z,19.40
2018-04-28T18:33:32.416Z,18.00
2018-04-28T18:35:58.156Z,16.07
2018-04-28T18:38:23.896Z,18.97
2018-04-28T18:40:49.698Z,17.20
2018-04-28T18:43:15.390Z,17.30
2018-04-28T18:45:41.172Z,16.20
2018-04-28T18:48:06.903Z,19.10
2018-04-28T18:50:32.654Z,15.93
2018-04-28T18:52:58.379Z,17.17
2018-04-28T18:55:24.128Z,17.37
2018-04-28T18:57:49.858Z,17.87
2018-04-28T19:00:15.592Z,17.07
2018-04-28T19:02:41.316Z,16.50
2018-04-28T19:05:07.081Z,17.20
2018-04-28T19:07:32.820Z,16.33
2018-04-28T19:09:58.557Z,17.83
2018-04-28T19:12:24.292Z,17.53
2018-04-28T19:14:50.036Z,16.40
2018-04-28T19:17:15.756Z,16.23
2018-04-28T19:19:41.512Z,17.37
2018-04-28T19:22:07.259Z,15.90
2018-04-28T19:24:33.150Z,16.67
2018-04-28T19:26:58.889Z,15.30
2018-04-28T19:29:24.631Z,15.13
2018-04-28T19:31:50.351Z,14.83
2018-04-28T19:34:16.412Z,14.47
2018-04-28T19:36:42.171Z,13.73
2018-04-28T19:39:07.895Z,13.70
2018-04-28T19:41:33.641Z,14.33
2018-04-28T19:43:59.386Z,13.00
2018-04-28T19:46:25.147Z,13.37
2018-04-28T19:48:50.874Z,13.13
2018-04-28T19:51:16.612Z,12.87
2018-04-28T19:53:42.344Z,13.70
2018-04-28T19:56:08.089Z,13.67
2018-04-28T19:58:33.827Z,12.80
2018-04-28T20:00:59.567Z,12.13
2018-04-28T20:03:25.295Z,13.87
2018-04-28T20:05:51.051Z,12.60
2018-04-28T20:08:16.775Z,12.30
2018-04-28T20:10:42.531Z,12.57
2018-04-28T20:13:08.252Z,11.97
2018-04-28T20:15:33.993Z,10.93
2018-04-28T20:17:59.729Z,10.53
2018-04-28T20:20:25.461Z,11.20
2018-04-28T20:23:03.552Z,11.10
2018-04-28T20:25:29.295Z,11.53
2018-04-28T20:27:55.032Z,12.27
2018-04-28T20:30:20.772Z,11.23
2018-04-28T20:32:46.508Z,11.80
2018-04-28T20:35:12.257Z,12.73
2018-04-28T20:37:37.984Z,12.50
2018-04-28T20:40:03.725Z,12.67
2018-04-28T20:42:29.481Z,12.67
2018-04-28T20:44:55.229Z,12.43
2018-04-28T20:47:20.985Z,13.23
2018-04-28T20:49:46.719Z,12.50
2018-04-28T20:52:12.457Z,13.93
2018-04-28T20:54:38.193Z,14.20
2018-04-28T20:57:03.937Z,14.03
2018-04-28T20:59:29.679Z,12.87
2018-04-28T21:01:55.436Z,14.07
2018-04-28T21:04:21.164Z,14.00
2018-04-28T21:06:46.913Z,13.27
2018-04-28T21:09:12.642Z,14.20
2018-04-28T21:11:38.384Z,13.90
2018-04-28T21:14:04.128Z,13.80
2018-04-28T21:16:29.872Z,14.37
2018-04-28T21:18:55.664Z,14.50
2018-04-28T21:21:21.366Z,13.37
2018-04-28T21:23:47.088Z,14.27
2018-04-28T21:26:12.819Z,14.27
2018-04-28T21:28:38.558Z,14.00
2018-04-28T21:31:04.297Z,15.27
2018-04-28T21:33:30.023Z,14.70
2018-04-28T21:35:55.760Z,14.37
2018-04-28T21:38:21.525Z,15.50
2018-04-28T21:40:47.365Z,16.20
2018-04-28T21:43:13.132Z,19.37
2018-04-28T21:45:38.890Z,18.93
2018-04-28T21:48:04.645Z,19.33
2018-04-28T21:50:30.397Z,19.90
2018-04-28T21:52:56.160Z,19.27
2018-04-28T21:55:21.908Z,23.00
2018-04-28T21:57:47.669Z,21.37
2018-04-28T22:00:13.405Z,21.77
2018-04-28T22:02:39.166Z,24.00
2018-04-28T22:05:04.919Z,23.30
2018-04-28T22:07:30.677Z,24.33
2018-04-28T22:09:56.430Z,23.40
2018-04-28T22:12:22.189Z,24.00
2018-04-28T22:14:47.928Z,24.63
2018-04-28T22:17:13.672Z,24.17
2018-04-28T22:19:39.433Z,25.67
2018-04-28T22:22:05.190Z,22.90
2018-04-28T22:24:30.941Z,25.40
2018-04-28T22:26:56.685Z,22.57
2018-04-28T22:29:22.427Z,22.37
2018-04-28T22:31:48.174Z,22.50
2018-04-28T22:34:13.912Z,24.60
2018-04-28T22:36:39.690Z,22.70
2018-04-28T22:39:05.404Z,22.17
2018-04-28T22:41:31.207Z,22.67
2018-04-28T22:43:56.917Z,23.80
2018-04-28T22:46:22.762Z,22.70
2018-04-28T22:48:48.545Z,24.60
2018-04-28T22:51:14.318Z,24.00
2018-04-28T22:53:40.040Z,24.57
2018-04-28T22:56:05.792Z,24.27
2018-04-28T22:58:31.533Z,22.53
2018-04-28T23:00:57.320Z,22.67
2018-04-28T23:03:23.060Z,22.70
2018-04-28T23:05:48.801Z,21.57
2018-04-28T23:08:14.544Z,23.10
2018-04-28T23:10:40.295Z,22.53
2018-04-28T23:13:06.119Z,23.07
2018-04-28T23:15:31.859Z,23.77
2018-04-28T23:17:57.613Z,24.33
2018-04-28T23:20:23.353Z,24.60
2018-04-28T23:22:49.217Z,26.20
2018-04-28T23:25:14.963Z,27.00
2018-04-28T23:27:40.702Z,25.00
2018-04-28T23:30:06.437Z,24.43
2018-04-28T23:32:32.243Z,25.10
2018-04-28T23:34:58.056Z,23.63
2018-04-28T23:37:23.801Z,24.00
2018-04-28T23:39:49.539Z,23.30
2018-04-28T23:42:15.281Z,24.43
2018-04-28T23:44:41.009Z,25.23
2018-04-28T23:47:06.756Z,24.77
2018-04-28T23:49:32.524Z,26.37
2018-04-28T23:51:58.285Z,25.80
2018-04-28T23:54:24.142Z,25.87
2018-04-28T23:56:49.884Z,24.07
2018-04-28T23:59:15.665Z,24.20
